Jackson Evers International Airport
KJAN : now visible

Airfield :











YOU CAN JOIN US ON...

 
LOGIN :

Register | Disclaimer

   EN    FR    IT 

 









Legend :    VFR   Marginal VFR   IFR   Intensive IFR   Very Intensive IFR
Visi :
Ceiling :
>= 8 km
>= 3000ft
5 to 8 km
1000 to 3000 ft
1500m to 5 km
500 to 1000 ft
800 to 1500m
200 to 500 ft
< 800m
< 200 ft
Symbols :   Thunderstorms  Fog  Heavy snow  Heavy precipitations  Wind > 20 kt






- Airport Elevation : 346 ft
- IATA code : JAN


KJAN - Jackson Evers International

CURRENT METAR :
  • 040454Z AUTO 12003KT 10SM CLR 24/23 A3007 RMK AO2 SLP177 T02390233 $

EXPIRED METARs :
  • 040354Z 17004KT 10SM FEW120 24/23 A3008 RMK AO2 SLP179 T02440233 $
  • 040254Z 19006KT 9SM FEW120 24/24 A3008 RMK AO2 SLP181 60000 T02440239 53011 $
  • 040154Z 00000KT 10SM CLR 25/24 A3006 RMK AO2 RAE07 SLP175 P0000 T02500239 $

TAF KJAN
Valid from the 04 at 00:00 until the 05 at 00:00 UTC


032358Z 0400/0424 VRB05KT 6SM SHRA BR SCT040 BKN120
TEMPO 0400/0402 3SM +SHRA BR
FM040300 21005KT P6SM FEW035 BKN060
FM041600 VRB05KT P6SM SHRA VCTS SCT025CB BKN040
FM042000 21005KT P6SM VCSH SCT040 BKN120
KZME FIR / North America



MET'MAP, your aeronautical weather chart ! - Copyright ORBIFLY December 2007 - Disclaimer

ORBIFLY MET'MAP TEAM :

Programming & Development : Alexandra Zaïnal
Original concept : Baudouin d'Aumeries
Technical & hardware support : Manuel Goepfert
Assistance : Marc-Olivier Méhu




SOURCES & CREDITS :

   NOAA       Earth
Advisory